sensor_id;sensor_type;location;lat;lon;timestamp;pressure;altitude;pressure_sealevel;temperature;humidity
36664;BME280;53333;51.976;20.144;2023-02-13T00:01:16;101949.13;;;5.25;72.28
36664;BME280;53333;51.976;20.144;2023-02-13T00:03:50;101952.66;;;5.26;72.28
36664;BME280;53333;51.976;20.144;2023-02-13T00:06:24;101955.31;;;5.26;72.34
36664;BME280;53333;51.976;20.144;2023-02-13T00:08:57;101950.88;;;5.28;72.64
36664;BME280;53333;51.976;20.144;2023-02-13T00:11:30;101958.84;;;5.30;72.49
36664;BME280;53333;51.976;20.144;2023-02-13T00:14:03;101950.88;;;5.28;72.67
36664;BME280;53333;51.976;20.144;2023-02-13T00:16:36;101952.66;;;5.29;72.57
36664;BME280;53333;51.976;20.144;2023-02-13T00:19:10;101957.09;;;5.28;72.59
36664;BME280;53333;51.976;20.144;2023-02-13T00:21:43;101955.31;;;5.29;72.85
36664;BME280;53333;51.976;20.144;2023-02-13T00:24:16;101950.88;;;5.30;72.64
36664;BME280;53333;51.976;20.144;2023-02-13T00:26:49;101952.66;;;5.32;72.75
36664;BME280;53333;51.976;20.144;2023-02-13T00:29:22;101929.69;;;5.31;72.65
36664;BME280;53333;51.976;20.144;2023-02-13T00:31:55;101933.25;;;5.32;72.72
36664;BME280;53333;51.976;20.144;2023-02-13T00:34:30;101932.34;;;5.31;72.83
36664;BME280;53333;51.976;20.144;2023-02-13T00:37:03;101926.16;;;5.31;72.65
36664;BME280;53333;51.976;20.144;2023-02-13T00:39:36;101920.88;;;5.32;72.81
36664;BME280;53333;51.976;20.144;2023-02-13T00:42:09;101925.28;;;5.33;72.73
36664;BME280;53333;51.976;20.144;2023-02-13T00:44:42;101915.56;;;5.32;72.78
36664;BME280;53333;51.976;20.144;2023-02-13T00:47:17;101911.13;;;5.31;72.82
36664;BME280;53333;51.976;20.144;2023-02-13T00:49:51;101904.09;;;5.30;72.85
36664;BME280;53333;51.976;20.144;2023-02-13T00:52:24;101905.84;;;5.30;72.79
36664;BME280;53333;51.976;20.144;2023-02-13T00:54:57;101903.19;;;5.31;72.92
36664;BME280;53333;51.976;20.144;2023-02-13T00:57:30;101912.03;;;5.32;72.77
36664;BME280;53333;51.976;20.144;2023-02-13T01:00:04;101904.09;;;5.30;72.89
36664;BME280;53333;51.976;20.144;2023-02-13T01:02:37;101913.78;;;5.31;72.91
36664;BME280;53333;51.976;20.144;2023-02-13T01:05:12;101922.66;;;5.33;73.02
36664;BME280;53333;51.976;20.144;2023-02-13T01:07:45;101920.88;;;5.35;72.80
36664;BME280;53333;51.976;20.144;2023-02-13T01:10:18;101914.69;;;5.36;72.88
36664;BME280;53333;51.976;20.144;2023-02-13T01:12:52;101914.69;;;5.49;72.26
36664;BME280;53333;51.976;20.144;2023-02-13T01:15:25;101921.75;;;5.42;72.32
36664;BME280;53333;51.976;20.144;2023-02-13T01:17:58;101914.69;;;5.42;72.49
36664;BME280;53333;51.976;20.144;2023-02-13T01:20:33;101920.88;;;5.44;72.57
36664;BME280;53333;51.976;20.144;2023-02-13T01:23:06;101919.97;;;5.45;72.47
36664;BME280;53333;51.976;20.144;2023-02-13T01:25:39;101915.59;;;5.44;72.49
36664;BME280;53333;51.976;20.144;2023-02-13T01:28:13;101912.94;;;5.44;72.56
36664;BME280;53333;51.976;20.144;2023-02-13T01:30:52;101921.75;;;5.46;72.48
36664;BME280;53333;51.976;20.144;2023-02-13T01:33:27;101910.28;;;5.44;72.67
36664;BME280;53333;51.976;20.144;2023-02-13T01:36:06;101912.94;;;5.44;72.67
36664;BME280;53333;51.976;20.144;2023-02-13T01:38:41;101912.94;;;5.44;72.66
36664;BME280;53333;51.976;20.144;2023-02-13T01:41:15;101908.50;;;5.43;72.60
36664;BME280;53333;51.976;20.144;2023-02-13T01:43:51;101900.56;;;5.43;72.63
36664;BME280;53333;51.976;20.144;2023-02-13T01:46:27;101908.50;;;5.43;72.53
36664;BME280;53333;51.976;20.144;2023-02-13T01:49:04;101910.28;;;5.44;72.68
36664;BME280;53333;51.976;20.144;2023-02-13T01:51:41;101907.63;;;5.44;72.61
36664;BME280;53333;51.976;20.144;2023-02-13T01:54:17;101897.03;;;5.44;72.71
36664;BME280;53333;51.976;20.144;2023-02-13T01:56:55;101896.13;;;5.47;72.58
36664;BME280;53333;51.976;20.144;2023-02-13T01:59:32;101904.97;;;5.46;72.56
36664;BME280;53333;51.976;20.144;2023-02-13T02:02:09;101904.97;;;5.46;72.46
36664;BME280;53333;51.976;20.144;2023-02-13T02:04:43;101898.78;;;5.49;72.62
36664;BME280;53333;51.976;20.144;2023-02-13T02:07:24;101902.34;;;5.51;72.57
36664;BME280;53333;51.976;20.144;2023-02-13T02:10:07;101893.47;;;5.53;72.47
36664;BME280;53333;51.976;20.144;2023-02-13T02:12:48;101898.78;;;5.53;72.40
36664;BME280;53333;51.976;20.144;2023-02-13T02:15:24;101897.91;;;5.53;72.34
36664;BME280;53333;51.976;20.144;2023-02-13T02:17:57;101903.22;;;5.56;72.27
36664;BME280;53333;51.976;20.144;2023-02-13T02:20:47;101897.91;;;5.62;72.24
36664;BME280;53333;51.976;20.144;2023-02-13T02:23:42;101900.56;;;5.62;72.25
36664;BME280;53333;51.976;20.144;2023-02-13T02:30:20;101894.34;;;5.66;72.01
36664;BME280;53333;51.976;20.144;2023-02-13T02:33:10;101903.22;;;5.62;71.88
36664;BME280;53333;51.976;20.144;2023-02-13T02:35:54;101906.72;;;5.59;72.03
36664;BME280;53333;51.976;20.144;2023-02-13T02:38:46;101898.78;;;5.59;72.14
36664;BME280;53333;51.976;20.144;2023-02-13T02:41:31;101900.56;;;5.59;72.07
36664;BME280;53333;51.976;20.144;2023-02-13T02:44:30;101901.44;;;5.58;72.14
36664;BME280;53333;51.976;20.144;2023-02-13T02:47:09;101902.31;;;5.58;71.97
36664;BME280;53333;51.976;20.144;2023-02-13T02:50:28;101903.22;;;5.63;71.92
36664;BME280;53333;51.976;20.144;2023-02-13T02:53:12;101904.09;;;5.61;71.95
36664;BME280;53333;51.976;20.144;2023-02-13T02:55:49;101912.91;;;5.72;71.35
36664;BME280;53333;51.976;20.144;2023-02-13T02:58:29;101904.94;;;5.61;71.57
36664;BME280;53333;51.976;20.144;2023-02-13T03:01:24;101906.72;;;5.58;71.62
36664;BME280;53333;51.976;20.144;2023-02-13T03:04:19;101909.38;;;5.58;71.61
36664;BME280;53333;51.976;20.144;2023-02-13T03:07:16;101903.22;;;5.57;71.62
36664;BME280;53333;51.976;20.144;2023-02-13T03:09:51;101909.38;;;5.59;71.67
36664;BME280;53333;51.976;20.144;2023-02-13T03:12:46;101910.25;;;5.60;71.62
36664;BME280;53333;51.976;20.144;2023-02-13T03:15:40;101908.50;;;5.60;71.68
36664;BME280;53333;51.976;20.144;2023-02-13T03:18:29;101915.56;;;5.61;71.71
36664;BME280;53333;51.976;20.144;2023-02-13T03:21:26;101920.88;;;5.63;71.54
36664;BME280;53333;51.976;20.144;2023-02-13T03:24:24;101916.47;;;5.67;71.71
36664;BME280;53333;51.976;20.144;2023-02-13T03:27:06;101921.78;;;5.68;71.46
36664;BME280;53333;51.976;20.144;2023-02-13T03:29:45;101915.56;;;5.68;71.31
36664;BME280;53333;51.976;20.144;2023-02-13T03:32:46;101914.69;;;5.69;71.43
36664;BME280;53333;51.976;20.144;2023-02-13T03:35:33;101912.03;;;5.69;71.48
36664;BME280;53333;51.976;20.144;2023-02-13T03:38:40;101914.69;;;5.67;71.42
36664;BME280;53333;51.976;20.144;2023-02-13T03:41:20;101918.22;;;5.66;71.53
36664;BME280;53333;51.976;20.144;2023-02-13T03:44:02;101918.22;;;5.68;71.44
36664;BME280;53333;51.976;20.144;2023-02-13T03:46:41;101912.91;;;5.66;71.52
36664;BME280;53333;51.976;20.144;2023-02-13T03:49:20;101915.56;;;5.68;71.47
36664;BME280;53333;51.976;20.144;2023-02-13T03:52:16;101912.91;;;5.69;71.55
36664;BME280;53333;51.976;20.144;2023-02-13T03:54:54;101914.69;;;5.70;71.41
36664;BME280;53333;51.976;20.144;2023-02-13T03:57:50;101911.16;;;5.71;71.22
36664;BME280;53333;51.976;20.144;2023-02-13T04:00:48;101912.91;;;5.72;71.36
36664;BME280;53333;51.976;20.144;2023-02-13T04:03:26;101912.03;;;5.73;71.44
36664;BME280;53333;51.976;20.144;2023-02-13T04:06:03;101907.59;;;5.74;71.38
36664;BME280;53333;51.976;20.144;2023-02-13T04:08:38;101901.44;;;5.75;71.33
36664;BME280;53333;51.976;20.144;2023-02-13T04:11:14;101902.31;;;5.77;71.37
36664;BME280;53333;51.976;20.144;2023-02-13T04:13:54;101897.88;;;5.77;71.31
36664;BME280;53333;51.976;20.144;2023-02-13T04:16:32;101900.53;;;5.76;71.46
36664;BME280;53333;51.976;20.144;2023-02-13T04:19:07;101906.72;;;5.76;71.45
36664;BME280;53333;51.976;20.144;2023-02-13T04:21:41;101904.06;;;5.76;71.32
36664;BME280;53333;51.976;20.144;2023-02-13T04:24:14;101898.78;;;5.76;71.31
36664;BME280;53333;51.976;20.144;2023-02-13T04:26:47;101906.72;;;5.76;71.36
36664;BME280;53333;51.976;20.144;2023-02-13T04:29:22;101903.16;;;5.76;71.47
36664;BME280;53333;51.976;20.144;2023-02-13T04:31:55;101908.47;;;5.77;71.30
36664;BME280;53333;51.976;20.144;2023-02-13T04:34:28;101912.03;;;5.76;71.26
36664;BME280;53333;51.976;20.144;2023-02-13T04:37:01;101914.69;;;5.76;71.37
36664;BME280;53333;51.976;20.144;2023-02-13T04:39:34;101915.56;;;5.75;71.29
36664;BME280;53333;51.976;20.144;2023-02-13T04:42:07;101917.34;;;5.75;71.39
36664;BME280;53333;51.976;20.144;2023-02-13T04:44:41;101918.22;;;5.72;71.28
36664;BME280;53333;51.976;20.144;2023-02-13T04:47:14;101915.56;;;5.74;71.43
36664;BME280;53333;51.976;20.144;2023-02-13T04:49:48;101919.13;;;5.73;71.31
36664;BME280;53333;51.976;20.144;2023-02-13T04:52:21;101920.00;;;5.73;71.25
36664;BME280;53333;51.976;20.144;2023-02-13T04:54:54;101922.66;;;5.73;71.20
36664;BME280;53333;51.976;20.144;2023-02-13T04:57:27;101930.59;;;5.73;71.10
36664;BME280;53333;51.976;20.144;2023-02-13T05:00:03;101924.38;;;5.74;71.31
36664;BME280;53333;51.976;20.144;2023-02-13T05:02:36;101924.38;;;5.74;71.18
36664;BME280;53333;51.976;20.144;2023-02-13T05:05:10;101920.00;;;5.73;70.93
36664;BME280;53333;51.976;20.144;2023-02-13T05:07:43;101918.22;;;5.72;71.19
36664;BME280;53333;51.976;20.144;2023-02-13T05:10:16;101925.28;;;5.72;71.21
36664;BME280;53333;51.976;20.144;2023-02-13T05:12:49;101935.91;;;5.70;71.28
36664;BME280;53333;51.976;20.144;2023-02-13T05:15:24;101923.50;;;5.68;71.20
36664;BME280;53333;51.976;20.144;2023-02-13T05:17:57;101928.81;;;5.66;71.44
36664;BME280;53333;51.976;20.144;2023-02-13T05:20:30;101925.28;;;5.64;71.46
36664;BME280;53333;51.976;20.144;2023-02-13T05:23:03;101932.38;;;5.60;71.47
36664;BME280;53333;51.976;20.144;2023-02-13T05:25:53;101932.38;;;5.56;71.56
36664;BME280;53333;51.976;20.144;2023-02-13T05:28:26;101929.72;;;5.53;71.69
36664;BME280;53333;51.976;20.144;2023-02-13T05:31:18;101932.38;;;5.51;71.63
36664;BME280;53333;51.976;20.144;2023-02-13T05:33:52;101938.53;;;5.52;71.67
36664;BME280;53333;51.976;20.144;2023-02-13T05:36:25;101937.66;;;5.50;71.71
36664;BME280;53333;51.976;20.144;2023-02-13T05:38:58;101935.88;;;5.49;71.67
36664;BME280;53333;51.976;20.144;2023-02-13T05:41:31;101942.09;;;5.48;71.71
36664;BME280;53333;51.976;20.144;2023-02-13T05:44:04;101935.88;;;5.47;71.74
36664;BME280;53333;51.976;20.144;2023-02-13T05:46:40;101935.88;;;5.47;71.85
36664;BME280;53333;51.976;20.144;2023-02-13T05:49:14;101933.22;;;5.49;71.71
36664;BME280;53333;51.976;20.144;2023-02-13T05:51:47;101936.78;;;5.51;71.77
36664;BME280;53333;51.976;20.144;2023-02-13T05:54:22;101934.13;;;5.51;71.87
36664;BME280;53333;51.976;20.144;2023-02-13T05:56:55;101940.31;;;5.50;71.74
36664;BME280;53333;51.976;20.144;2023-02-13T05:59:28;101937.66;;;5.48;71.86
36664;BME280;53333;51.976;20.144;2023-02-13T06:02:03;101937.66;;;5.51;71.89
36664;BME280;53333;51.976;20.144;2023-02-13T06:04:36;101944.75;;;5.55;71.85
36664;BME280;53333;51.976;20.144;2023-02-13T06:07:10;101938.53;;;5.59;71.74
36664;BME280;53333;51.976;20.144;2023-02-13T06:09:43;101945.63;;;5.60;71.62
36664;BME280;53333;51.976;20.144;2023-02-13T06:12:16;101948.28;;;5.62;71.76
36664;BME280;53333;51.976;20.144;2023-02-13T06:14:49;101946.50;;;5.61;71.65
36664;BME280;53333;51.976;20.144;2023-02-13T06:17:23;101941.19;;;5.61;71.64
36664;BME280;53333;51.976;20.144;2023-02-13T06:19:56;101942.97;;;5.60;71.69
36664;BME280;53333;51.976;20.144;2023-02-13T06:22:29;101929.72;;;5.59;71.70
36664;BME280;53333;51.976;20.144;2023-02-13T06:25:04;101935.91;;;5.61;71.79
36664;BME280;53333;51.976;20.144;2023-02-13T06:27:37;101934.13;;;5.72;71.17
36664;BME280;53333;51.976;20.144;2023-02-13T06:30:11;101942.97;;;5.62;71.39
36664;BME280;53333;51.976;20.144;2023-02-13T06:32:47;101935.91;;;5.61;71.54
36664;BME280;53333;51.976;20.144;2023-02-13T06:35:20;101942.06;;;5.60;71.55
36664;BME280;53333;51.976;20.144;2023-02-13T06:37:53;101947.38;;;5.58;71.54
36664;BME280;53333;51.976;20.144;2023-02-13T06:40:26;101947.38;;;5.58;71.62
36664;BME280;53333;51.976;20.144;2023-02-13T06:42:59;101940.31;;;5.56;71.61
36664;BME280;53333;51.976;20.144;2023-02-13T06:45:32;101940.31;;;5.56;71.58
36664;BME280;53333;51.976;20.144;2023-02-13T06:48:07;101942.97;;;5.54;71.67
36664;BME280;53333;51.976;20.144;2023-02-13T06:50:40;101943.84;;;5.56;71.74
36664;BME280;53333;51.976;20.144;2023-02-13T06:53:13;101946.50;;;5.58;71.64
36664;BME280;53333;51.976;20.144;2023-02-13T06:55:46;101944.72;;;5.60;71.65
36664;BME280;53333;51.976;20.144;2023-02-13T06:58:19;101937.69;;;5.60;71.51
36664;BME280;53333;51.976;20.144;2023-02-13T07:00:53;101933.25;;;5.62;71.59
36664;BME280;53333;51.976;20.144;2023-02-13T07:03:27;101932.38;;;5.68;71.39
36664;BME280;53333;51.976;20.144;2023-02-13T07:06:00;101933.25;;;5.73;71.40
36664;BME280;53333;51.976;20.144;2023-02-13T07:08:33;101944.72;;;5.78;70.98
36664;BME280;53333;51.976;20.144;2023-02-13T07:11:06;101942.94;;;5.83;71.13
36664;BME280;53333;51.976;20.144;2023-02-13T07:13:41;101942.06;;;5.92;71.16
36664;BME280;53333;51.976;20.144;2023-02-13T07:16:14;101939.44;;;6.03;70.75
36664;BME280;53333;51.976;20.144;2023-02-13T07:18:49;101952.66;;;6.12;70.66
36664;BME280;53333;51.976;20.144;2023-02-13T07:21:22;101952.66;;;6.22;70.52
36664;BME280;53333;51.976;20.144;2023-02-13T07:23:55;101943.81;;;6.29;70.22
36664;BME280;53333;51.976;20.144;2023-02-13T07:26:28;101949.06;;;6.36;69.88
36664;BME280;53333;51.976;20.144;2023-02-13T07:29:01;101959.66;;;6.44;69.79
36664;BME280;53333;51.976;20.144;2023-02-13T07:31:42;101950.81;;;6.50;69.68
36664;BME280;53333;51.976;20.144;2023-02-13T07:34:17;101950.78;;;6.61;69.55
36664;BME280;53333;51.976;20.144;2023-02-13T07:36:52;101943.66;;;6.66;69.43
36664;BME280;53333;51.976;20.144;2023-02-13T07:39:25;101942.75;;;6.70;69.17
36664;BME280;53333;51.976;20.144;2023-02-13T07:41:58;101943.66;;;6.70;69.18
36664;BME280;53333;51.976;20.144;2023-02-13T07:44:32;101950.69;;;6.76;69.09
36664;BME280;53333;51.976;20.144;2023-02-13T07:47:05;101953.34;;;6.78;69.17
36664;BME280;53333;51.976;20.144;2023-02-13T07:49:39;101956.91;;;6.75;69.03
36664;BME280;53333;51.976;20.144;2023-02-13T07:52:12;101954.28;;;6.69;69.08
36664;BME280;53333;51.976;20.144;2023-02-13T07:54:45;101956.94;;;6.66;69.10
36664;BME280;53333;51.976;20.144;2023-02-13T07:57:18;101948.13;;;6.61;69.31
36664;BME280;53333;51.976;20.144;2023-02-13T07:59:51;101946.38;;;6.55;69.27
36664;BME280;53333;51.976;20.144;2023-02-13T08:02:30;101945.50;;;6.51;69.48
36664;BME280;53333;51.976;20.144;2023-02-13T08:05:08;101942.88;;;6.45;69.71
36664;BME280;53333;51.976;20.144;2023-02-13T08:07:41;101945.53;;;6.42;69.88
36664;BME280;53333;51.976;20.144;2023-02-13T08:10:14;101940.22;;;6.39;69.92
36664;BME280;53333;51.976;20.144;2023-02-13T08:13:06;101939.34;;;6.37;70.01
36664;BME280;53333;51.976;20.144;2023-02-13T08:15:39;101946.41;;;6.36;70.22
36664;BME280;53333;51.976;20.144;2023-02-13T08:18:15;101943.75;;;6.35;70.39
36664;BME280;53333;51.976;20.144;2023-02-13T08:20:51;101943.75;;;6.38;70.69
36664;BME280;53333;51.976;20.144;2023-02-13T08:23:25;101950.81;;;6.47;70.91
36664;BME280;53333;51.976;20.144;2023-02-13T08:25:59;101948.16;;;6.51;70.85
36664;BME280;53333;51.976;20.144;2023-02-13T08:28:32;101946.34;;;6.60;70.89
36664;BME280;53333;51.976;20.144;2023-02-13T08:31:09;101945.41;;;6.73;70.79
36664;BME280;53333;51.976;20.144;2023-02-13T08:33:42;101947.13;;;6.83;70.82
36664;BME280;53333;51.976;20.144;2023-02-13T08:36:20;101943.50;;;6.98;70.64
36664;BME280;53333;51.976;20.144;2023-02-13T08:38:53;101942.59;;;7.07;70.52
36664;BME280;53333;51.976;20.144;2023-02-13T08:41:26;101936.34;;;7.11;70.54
36664;BME280;53333;51.976;20.144;2023-02-13T08:43:59;101940.75;;;7.14;70.48
36664;BME280;53333;51.976;20.144;2023-02-13T08:46:32;101934.53;;;7.15;70.36
36664;BME280;53333;51.976;20.144;2023-02-13T08:49:08;101933.66;;;7.17;70.41
36664;BME280;53333;51.976;20.144;2023-02-13T08:51:42;101927.44;;;7.18;70.44
36664;BME280;53333;51.976;20.144;2023-02-13T08:54:15;101920.38;;;7.16;70.35
36664;BME280;53333;51.976;20.144;2023-02-13T08:56:48;101914.19;;;7.14;70.33
36664;BME280;53333;51.976;20.144;2023-02-13T08:59:21;101915.06;;;7.13;70.42
36664;BME280;53333;51.976;20.144;2023-02-13T09:01:55;101917.75;;;7.08;70.58
36664;BME280;53333;51.976;20.144;2023-02-13T09:04:28;101919.53;;;7.06;70.54
36664;BME280;53333;51.976;20.144;2023-02-13T09:07:03;101917.78;;;7.05;70.61
36664;BME280;53333;51.976;20.144;2023-02-13T09:09:37;101923.97;;;7.07;70.66
36664;BME280;53333;51.976;20.144;2023-02-13T09:12:10;101921.31;;;7.10;70.68
36664;BME280;53333;51.976;20.144;2023-02-13T09:14:43;101913.25;;;7.18;70.22
36664;BME280;53333;51.976;20.144;2023-02-13T09:17:16;101905.28;;;7.19;70.04
36664;BME280;53333;51.976;20.144;2023-02-13T09:19:50;101906.06;;;7.31;69.85
36664;BME280;53333;51.976;20.144;2023-02-13T09:22:24;101907.78;;;7.39;69.75
36664;BME280;53333;51.976;20.144;2023-02-13T09:24:57;101912.03;;;7.62;69.35
36664;BME280;53333;51.976;20.144;2023-02-13T09:27:35;101901.00;;;8.02;68.44
36664;BME280;53333;51.976;20.144;2023-02-13T09:30:10;101900.84;;;8.17;68.32
36664;BME280;53333;51.976;20.144;2023-02-13T09:32:45;101907.84;;;8.25;68.00
36664;BME280;53333;51.976;20.144;2023-02-13T09:35:19;101906.09;;;8.24;67.88
36664;BME280;53333;51.976;20.144;2023-02-13T09:37:54;101896.25;;;8.30;67.83
36664;BME280;53333;51.976;20.144;2023-02-13T09:40:31;101898.06;;;8.28;67.68
36664;BME280;53333;51.976;20.144;2023-02-13T09:43:12;101889.19;;;8.28;67.52
36664;BME280;53333;51.976;20.144;2023-02-13T09:45:49;101891.84;;;8.26;67.36
36664;BME280;53333;51.976;20.144;2023-02-13T09:48:28;101889.22;;;8.23;67.25
36664;BME280;53333;51.976;20.144;2023-02-13T09:51:02;101891.09;;;8.15;67.32
36664;BME280;53333;51.976;20.144;2023-02-13T09:53:37;101898.28;;;8.07;67.24
36664;BME280;53333;51.976;20.144;2023-02-13T09:56:16;101894.81;;;8.00;67.09
36664;BME280;53333;51.976;20.144;2023-02-13T09:58:57;101902.84;;;7.95;67.32
36664;BME280;53333;51.976;20.144;2023-02-13T10:01:37;101906.44;;;7.91;67.29
36664;BME280;53333;51.976;20.144;2023-02-13T10:04:20;101897.63;;;7.86;67.15
36664;BME280;53333;51.976;20.144;2023-02-13T10:07:05;101904.78;;;7.81;67.12
36664;BME280;53333;51.976;20.144;2023-02-13T10:09:49;101908.31;;;7.80;66.97
36664;BME280;53333;51.976;20.144;2023-02-13T10:12:47;101897.59;;;7.89;67.02
36664;BME280;53333;51.976;20.144;2023-02-13T10:15:29;101899.34;;;7.92;66.98
36664;BME280;53333;51.976;20.144;2023-02-13T10:18:11;101902.84;;;7.95;66.91
36664;BME280;53333;51.976;20.144;2023-02-13T10:20:48;101893.97;;;7.96;66.67
36664;BME280;53333;51.976;20.144;2023-02-13T10:23:26;101896.56;;;8.04;66.59
36664;BME280;53333;51.976;20.144;2023-02-13T10:26:04;101900.06;;;8.08;66.29
36664;BME280;53333;51.976;20.144;2023-02-13T10:28:43;101903.56;;;8.11;66.45
36664;BME280;53333;51.976;20.144;2023-02-13T10:31:38;101904.41;;;8.16;66.26
36664;BME280;53333;51.976;20.144;2023-02-13T10:34:15;101901.72;;;8.18;66.00
36664;BME280;53333;51.976;20.144;2023-02-13T10:36:48;101906.16;;;8.19;65.67
36664;BME280;53333;51.976;20.144;2023-02-13T10:39:23;101903.50;;;8.19;65.48
36664;BME280;53333;51.976;20.144;2023-02-13T10:42:06;101900.84;;;8.19;65.58
36664;BME280;53333;51.976;20.144;2023-02-13T10:44:53;101896.47;;;8.12;65.35
36664;BME280;53333;51.976;20.144;2023-02-13T10:47:47;101894.81;;;8.02;65.46
36664;BME280;53333;51.976;20.144;2023-02-13T10:50:26;101891.38;;;7.90;65.53
36664;BME280;53333;51.976;20.144;2023-02-13T10:53:11;101892.28;;;7.88;65.52
36664;BME280;53333;51.976;20.144;2023-02-13T10:56:05;101885.25;;;7.84;65.46
36664;BME280;53333;51.976;20.144;2023-02-13T10:58:51;101881.75;;;7.77;65.51
36664;BME280;53333;51.976;20.144;2023-02-13T11:01:31;101885.38;;;7.70;65.59
36664;BME280;53333;51.976;20.144;2023-02-13T11:04:10;101882.75;;;7.65;65.54
36664;BME280;53333;51.976;20.144;2023-02-13T11:06:50;101874.84;;;7.57;65.54
36664;BME280;53333;51.976;20.144;2023-02-13T11:09:25;101875.81;;;7.49;65.65
36664;BME280;53333;51.976;20.144;2023-02-13T11:12:24;101883.00;;;7.40;65.94
36664;BME280;53333;51.976;20.144;2023-02-13T11:15:00;101893.69;;;7.31;65.94
36664;BME280;53333;51.976;20.144;2023-02-13T11:17:36;101885.72;;;7.30;65.96
36664;BME280;53333;51.976;20.144;2023-02-13T11:20:27;101879.50;;;7.29;66.08
36664;BME280;53333;51.976;20.144;2023-02-13T11:23:21;101878.66;;;7.25;66.08
36664;BME280;53333;51.976;20.144;2023-02-13T11:25:59;101880.50;;;7.14;66.23
36664;BME280;53333;51.976;20.144;2023-02-13T11:28:36;101870.81;;;7.12;66.38
36664;BME280;53333;51.976;20.144;2023-02-13T11:31:22;101873.34;;;7.22;66.47
36664;BME280;53333;51.976;20.144;2023-02-13T11:33:57;101867.94;;;7.38;66.49
36664;BME280;53333;51.976;20.144;2023-02-13T11:36:31;101866.88;;;7.54;66.15
36664;BME280;53333;51.976;20.144;2023-02-13T11:39:09;101872.03;;;7.74;65.91
36664;BME280;53333;51.976;20.144;2023-02-13T11:41:49;101863.84;;;7.91;65.67
36664;BME280;53333;51.976;20.144;2023-02-13T11:44:25;101862.84;;;8.03;65.35
36664;BME280;53333;51.976;20.144;2023-02-13T11:47:00;101861.81;;;8.15;65.18
36664;BME280;53333;51.976;20.144;2023-02-13T11:49:35;101857.38;;;8.17;64.82
36664;BME280;53333;51.976;20.144;2023-02-13T11:52:22;101852.84;;;8.25;64.64
36664;BME280;53333;51.976;20.144;2023-02-13T11:54:57;101850.09;;;8.33;64.38
36664;BME280;53333;51.976;20.144;2023-02-13T11:57:33;101847.28;;;8.45;64.18
36664;BME280;53333;51.976;20.144;2023-02-13T12:00:26;101841.63;;;8.70;63.45
36664;BME280;53333;51.976;20.144;2023-02-13T12:03:24;101839.66;;;8.84;63.25
36664;BME280;53333;51.976;20.144;2023-02-13T12:06:03;101843.97;;;8.91;62.85
36664;BME280;53333;51.976;20.144;2023-02-13T12:08:38;101835.03;;;8.96;62.91
36664;BME280;53333;51.976;20.144;2023-02-13T12:11:19;101830.44;;;9.04;62.47
36664;BME280;53333;51.976;20.144;2023-02-13T12:13:54;101827.75;;;9.05;62.07
36664;BME280;53333;51.976;20.144;2023-02-13T12:16:29;101816.16;;;9.09;62.54
36664;BME280;53333;51.976;20.144;2023-02-13T12:19:12;101833.06;;;9.07;62.39
36664;BME280;53333;51.976;20.144;2023-02-13T12:21:53;101829.31;;;9.19;62.43
36664;BME280;53333;51.976;20.144;2023-02-13T12:24:48;101827.66;;;9.12;61.96
36664;BME280;53333;51.976;20.144;2023-02-13T12:27:33;101816.19;;;9.08;61.60
36664;BME280;53333;51.976;20.144;2023-02-13T12:33:44;101808.41;;;8.93;61.58
36664;BME280;53333;51.976;20.144;2023-02-13T12:36:31;101814.66;;;8.91;61.56
36664;BME280;53333;51.976;20.144;2023-02-13T12:39:16;101823.53;;;8.92;61.65
36664;BME280;53333;51.976;20.144;2023-02-13T12:44:49;101802.28;;;8.89;61.37
36664;BME280;53333;51.976;20.144;2023-02-13T12:47:25;101810.22;;;8.92;61.47
36664;BME280;53333;51.976;20.144;2023-02-13T12:50:33;101805.09;;;8.78;61.55
36664;BME280;53333;51.976;20.144;2023-02-13T12:56:24;101804.56;;;8.53;62.04
36664;BME280;53333;51.976;20.144;2023-02-13T12:59:07;101811.81;;;8.43;62.41
36664;BME280;53333;51.976;20.144;2023-02-13T13:01:57;101799.41;;;8.37;62.31
36664;BME280;53333;51.976;20.144;2023-02-13T13:04:48;101797.66;;;8.36;62.42
36664;BME280;53333;51.976;20.144;2023-02-13T13:07:38;101798.47;;;8.42;62.48
36664;BME280;53333;51.976;20.144;2023-02-13T13:10:39;101792.28;;;8.41;62.44
36664;BME280;53333;51.976;20.144;2023-02-13T13:13:30;101774.59;;;8.35;62.16
36664;BME280;53333;51.976;20.144;2023-02-13T13:16:16;101780.97;;;8.24;62.33
36664;BME280;53333;51.976;20.144;2023-02-13T13:18:58;101789.00;;;8.22;62.33
36664;BME280;53333;51.976;20.144;2023-02-13T13:21:40;101794.28;;;8.24;62.44
36664;BME280;53333;51.976;20.144;2023-02-13T13:24:31;101788.88;;;8.31;62.20
36664;BME280;53333;51.976;20.144;2023-02-13T13:27:16;101771.16;;;8.29;62.14
36664;BME280;53333;51.976;20.144;2023-02-13T13:29:53;101760.53;;;8.26;61.90
36664;BME280;53333;51.976;20.144;2023-02-13T13:32:28;101752.66;;;8.18;61.82
36664;BME280;53333;51.976;20.144;2023-02-13T13:35:03;101758.94;;;8.14;61.76
36664;BME280;53333;51.976;20.144;2023-02-13T13:37:36;101753.47;;;8.22;61.77
36664;BME280;53333;51.976;20.144;2023-02-13T13:40:26;101756.28;;;8.12;61.75
36664;BME280;53333;51.976;20.144;2023-02-13T13:43:15;101747.41;;;8.10;61.83
36664;BME280;53333;51.976;20.144;2023-02-13T13:45:59;101743.09;;;8.03;61.88
36664;BME280;53333;51.976;20.144;2023-02-13T13:48:54;101738.66;;;8.02;61.90
36664;BME280;53333;51.976;20.144;2023-02-13T13:51:30;101744.06;;;7.96;62.08
36664;BME280;53333;51.976;20.144;2023-02-13T13:54:33;101743.19;;;7.95;62.06
36664;BME280;53333;51.976;20.144;2023-02-13T13:57:09;101752.94;;;7.98;62.05
36664;BME280;53333;51.976;20.144;2023-02-13T14:00:25;101740.50;;;7.98;62.15
36664;BME280;53333;51.976;20.144;2023-02-13T14:03:21;101748.56;;;7.92;62.13